sensor_id;sensor_type;location;lat;lon;timestamp;P1;durP1;ratioP1;P2;durP2;ratioP2
8044;SDS011;4065;48.754;9.982;2023-03-01T00:00:49;29.98;;;21.52;;
8044;SDS011;4065;48.754;9.982;2023-03-01T00:04:10;34.95;;;22.33;;
8044;SDS011;4065;48.754;9.982;2023-03-01T00:07:32;31.58;;;20.58;;
8044;SDS011;4065;48.754;9.982;2023-03-01T00:11:01;30.90;;;21.05;;
8044;SDS011;4065;48.754;9.982;2023-03-01T00:14:25;29.25;;;20.58;;
8044;SDS011;4065;48.754;9.982;2023-03-01T00:17:47;29.77;;;20.48;;
8044;SDS011;4065;48.754;9.982;2023-03-01T00:21:09;31.67;;;22.48;;
8044;SDS011;4065;48.754;9.982;2023-03-01T00:24:31;32.42;;;21.65;;
8044;SDS011;4065;48.754;9.982;2023-03-01T00:27:53;29.75;;;21.52;;
8044;SDS011;4065;48.754;9.982;2023-03-01T00:31:17;32.83;;;21.65;;
8044;SDS011;4065;48.754;9.982;2023-03-01T00:34:40;35.42;;;23.00;;
8044;SDS011;4065;48.754;9.982;2023-03-01T00:38:02;35.70;;;22.70;;
8044;SDS011;4065;48.754;9.982;2023-03-01T00:41:25;31.88;;;22.73;;
8044;SDS011;4065;48.754;9.982;2023-03-01T00:44:47;36.85;;;22.52;;
8044;SDS011;4065;48.754;9.982;2023-03-01T00:48:11;33.38;;;21.77;;
8044;SDS011;4065;48.754;9.982;2023-03-01T00:51:33;30.95;;;23.10;;
8044;SDS011;4065;48.754;9.982;2023-03-01T00:54:55;30.73;;;21.45;;
8044;SDS011;4065;48.754;9.982;2023-03-01T00:58:18;32.38;;;22.15;;
8044;SDS011;4065;48.754;9.982;2023-03-01T01:01:40;34.33;;;22.65;;
8044;SDS011;4065;48.754;9.982;2023-03-01T01:05:04;36.45;;;22.33;;
8044;SDS011;4065;48.754;9.982;2023-03-01T01:08:26;34.97;;;22.42;;
8044;SDS011;4065;48.754;9.982;2023-03-01T01:11:48;31.25;;;22.08;;
8044;SDS011;4065;48.754;9.982;2023-03-01T01:15:12;35.15;;;22.35;;
8044;SDS011;4065;48.754;9.982;2023-03-01T01:18:37;35.88;;;22.98;;
8044;SDS011;4065;48.754;9.982;2023-03-01T01:22:00;33.25;;;21.63;;
8044;SDS011;4065;48.754;9.982;2023-03-01T01:25:22;37.40;;;25.05;;
8044;SDS011;4065;48.754;9.982;2023-03-01T01:28:45;38.15;;;23.63;;
8044;SDS011;4065;48.754;9.982;2023-03-01T01:32:07;39.13;;;24.75;;
8044;SDS011;4065;48.754;9.982;2023-03-01T01:35:29;37.88;;;25.05;;
8044;SDS011;4065;48.754;9.982;2023-03-01T01:38:53;37.13;;;23.20;;
8044;SDS011;4065;48.754;9.982;2023-03-01T01:42:15;39.05;;;23.67;;
8044;SDS011;4065;48.754;9.982;2023-03-01T01:45:38;37.03;;;24.30;;
8044;SDS011;4065;48.754;9.982;2023-03-01T01:49:01;38.13;;;24.60;;
8044;SDS011;4065;48.754;9.982;2023-03-01T01:52:26;39.33;;;24.10;;
8044;SDS011;4065;48.754;9.982;2023-03-01T01:55:52;36.85;;;24.02;;
8044;SDS011;4065;48.754;9.982;2023-03-01T01:59:17;34.50;;;23.80;;
8044;SDS011;4065;48.754;9.982;2023-03-01T02:02:39;34.00;;;22.67;;
8044;SDS011;4065;48.754;9.982;2023-03-01T02:06:03;36.85;;;24.35;;
8044;SDS011;4065;48.754;9.982;2023-03-01T02:09:28;34.40;;;23.88;;
8044;SDS011;4065;48.754;9.982;2023-03-01T02:12:57;41.45;;;24.55;;
8044;SDS011;4065;48.754;9.982;2023-03-01T02:16:19;35.63;;;23.50;;
8044;SDS011;4065;48.754;9.982;2023-03-01T02:19:44;39.50;;;23.90;;
8044;SDS011;4065;48.754;9.982;2023-03-01T02:23:12;38.78;;;25.02;;
8044;SDS011;4065;48.754;9.982;2023-03-01T02:26:36;35.90;;;23.85;;
8044;SDS011;4065;48.754;9.982;2023-03-01T02:30:03;39.08;;;26.50;;
8044;SDS011;4065;48.754;9.982;2023-03-01T02:33:26;37.25;;;25.33;;
8044;SDS011;4065;48.754;9.982;2023-03-01T02:36:49;38.67;;;25.10;;
8044;SDS011;4065;48.754;9.982;2023-03-01T02:40:14;33.33;;;22.83;;
8044;SDS011;4065;48.754;9.982;2023-03-01T02:43:37;39.10;;;24.05;;
8044;SDS011;4065;48.754;9.982;2023-03-01T02:47:01;42.03;;;25.30;;
8044;SDS011;4065;48.754;9.982;2023-03-01T02:50:35;34.78;;;23.20;;
8044;SDS011;4065;48.754;9.982;2023-03-01T02:54:10;38.72;;;24.23;;
8044;SDS011;4065;48.754;9.982;2023-03-01T02:57:38;48.33;;;25.27;;
8044;SDS011;4065;48.754;9.982;2023-03-01T03:01:01;41.22;;;24.70;;
8044;SDS011;4065;48.754;9.982;2023-03-01T03:04:27;41.08;;;26.40;;
8044;SDS011;4065;48.754;9.982;2023-03-01T03:07:49;37.40;;;25.02;;
8044;SDS011;4065;48.754;9.982;2023-03-01T03:11:11;41.15;;;25.13;;
8044;SDS011;4065;48.754;9.982;2023-03-01T03:14:35;40.92;;;25.58;;
8044;SDS011;4065;48.754;9.982;2023-03-01T03:17:57;37.08;;;24.63;;
8044;SDS011;4065;48.754;9.982;2023-03-01T03:21:21;39.03;;;25.00;;
8044;SDS011;4065;48.754;9.982;2023-03-01T03:24:43;38.00;;;24.33;;
8044;SDS011;4065;48.754;9.982;2023-03-01T03:28:05;37.88;;;23.85;;
8044;SDS011;4065;48.754;9.982;2023-03-01T03:31:30;40.92;;;26.95;;
8044;SDS011;4065;48.754;9.982;2023-03-01T03:34:52;38.95;;;25.08;;
8044;SDS011;4065;48.754;9.982;2023-03-01T03:38:17;42.25;;;24.70;;
8044;SDS011;4065;48.754;9.982;2023-03-01T03:41:42;38.60;;;24.10;;
8044;SDS011;4065;48.754;9.982;2023-03-01T03:45:04;36.40;;;24.02;;
8044;SDS011;4065;48.754;9.982;2023-03-01T03:48:27;36.17;;;25.23;;
8044;SDS011;4065;48.754;9.982;2023-03-01T03:51:49;43.15;;;25.98;;
8044;SDS011;4065;48.754;9.982;2023-03-01T03:55:12;41.35;;;27.70;;
8044;SDS011;4065;48.754;9.982;2023-03-01T03:58:34;37.08;;;25.80;;
8044;SDS011;4065;48.754;9.982;2023-03-01T04:01:56;36.25;;;24.85;;
8044;SDS011;4065;48.754;9.982;2023-03-01T04:05:18;36.00;;;24.35;;
8044;SDS011;4065;48.754;9.982;2023-03-01T04:08:40;34.80;;;23.48;;
8044;SDS011;4065;48.754;9.982;2023-03-01T04:12:04;38.35;;;25.30;;
8044;SDS011;4065;48.754;9.982;2023-03-01T04:15:27;38.38;;;23.85;;
8044;SDS011;4065;48.754;9.982;2023-03-01T04:18:49;39.22;;;25.25;;
8044;SDS011;4065;48.754;9.982;2023-03-01T04:22:11;36.97;;;24.63;;
8044;SDS011;4065;48.754;9.982;2023-03-01T04:25:38;38.58;;;24.95;;
8044;SDS011;4065;48.754;9.982;2023-03-01T04:29:02;36.22;;;24.25;;
8044;SDS011;4065;48.754;9.982;2023-03-01T04:32:24;42.85;;;25.10;;
8044;SDS011;4065;48.754;9.982;2023-03-01T04:35:49;38.92;;;26.35;;
8044;SDS011;4065;48.754;9.982;2023-03-01T04:39:14;38.80;;;26.10;;
8044;SDS011;4065;48.754;9.982;2023-03-01T04:42:36;37.75;;;25.40;;
8044;SDS011;4065;48.754;9.982;2023-03-01T04:46:01;42.42;;;26.02;;
8044;SDS011;4065;48.754;9.982;2023-03-01T04:49:24;38.53;;;25.65;;
8044;SDS011;4065;48.754;9.982;2023-03-01T04:52:46;36.70;;;24.45;;
8044;SDS011;4065;48.754;9.982;2023-03-01T04:56:09;39.33;;;25.30;;
8044;SDS011;4065;48.754;9.982;2023-03-01T04:59:31;38.35;;;24.15;;
8044;SDS011;4065;48.754;9.982;2023-03-01T05:02:56;40.10;;;25.52;;
8044;SDS011;4065;48.754;9.982;2023-03-01T05:06:20;42.15;;;25.40;;
8044;SDS011;4065;48.754;9.982;2023-03-01T05:09:42;37.80;;;24.33;;
8044;SDS011;4065;48.754;9.982;2023-03-01T05:13:04;34.65;;;22.98;;
8044;SDS011;4065;48.754;9.982;2023-03-01T05:16:26;38.92;;;24.52;;
8044;SDS011;4065;48.754;9.982;2023-03-01T05:19:50;38.70;;;24.05;;
8044;SDS011;4065;48.754;9.982;2023-03-01T05:23:12;39.20;;;26.17;;
8044;SDS011;4065;48.754;9.982;2023-03-01T05:26:34;36.33;;;24.73;;
8044;SDS011;4065;48.754;9.982;2023-03-01T05:30:00;37.45;;;25.23;;
8044;SDS011;4065;48.754;9.982;2023-03-01T05:33:33;33.30;;;23.05;;
8044;SDS011;4065;48.754;9.982;2023-03-01T05:36:57;35.83;;;23.27;;
8044;SDS011;4065;48.754;9.982;2023-03-01T05:40:20;39.22;;;24.58;;
8044;SDS011;4065;48.754;9.982;2023-03-01T05:43:44;38.47;;;24.60;;
8044;SDS011;4065;48.754;9.982;2023-03-01T05:47:06;35.42;;;24.15;;
8044;SDS011;4065;48.754;9.982;2023-03-01T05:50:29;38.65;;;25.70;;
8044;SDS011;4065;48.754;9.982;2023-03-01T05:53:53;36.47;;;23.88;;
8044;SDS011;4065;48.754;9.982;2023-03-01T05:57:15;44.13;;;25.35;;
8044;SDS011;4065;48.754;9.982;2023-03-01T06:00:37;42.20;;;25.33;;
8044;SDS011;4065;48.754;9.982;2023-03-01T06:03:59;46.50;;;27.23;;
8044;SDS011;4065;48.754;9.982;2023-03-01T06:07:22;36.78;;;25.02;;
8044;SDS011;4065;48.754;9.982;2023-03-01T06:10:47;41.15;;;24.58;;
8044;SDS011;4065;48.754;9.982;2023-03-01T06:14:09;44.05;;;25.90;;
8044;SDS011;4065;48.754;9.982;2023-03-01T06:17:35;40.25;;;25.42;;
8044;SDS011;4065;48.754;9.982;2023-03-01T06:20:58;43.15;;;26.13;;
8044;SDS011;4065;48.754;9.982;2023-03-01T06:24:20;39.72;;;25.05;;
8044;SDS011;4065;48.754;9.982;2023-03-01T06:27:46;41.70;;;25.55;;
8044;SDS011;4065;48.754;9.982;2023-03-01T06:31:09;47.40;;;28.38;;
8044;SDS011;4065;48.754;9.982;2023-03-01T06:34:31;41.20;;;27.33;;
8044;SDS011;4065;48.754;9.982;2023-03-01T06:37:54;45.20;;;27.80;;
8044;SDS011;4065;48.754;9.982;2023-03-01T06:41:16;42.10;;;25.58;;
8044;SDS011;4065;48.754;9.982;2023-03-01T06:44:40;37.92;;;25.27;;
8044;SDS011;4065;48.754;9.982;2023-03-01T06:48:03;39.13;;;26.73;;
8044;SDS011;4065;48.754;9.982;2023-03-01T06:51:26;42.70;;;26.88;;
8044;SDS011;4065;48.754;9.982;2023-03-01T06:54:47;39.38;;;25.83;;
8044;SDS011;4065;48.754;9.982;2023-03-01T06:58:09;38.53;;;25.58;;
8044;SDS011;4065;48.754;9.982;2023-03-01T07:01:33;41.97;;;27.80;;
8044;SDS011;4065;48.754;9.982;2023-03-01T07:04:56;38.28;;;27.25;;
8044;SDS011;4065;48.754;9.982;2023-03-01T07:08:21;43.25;;;27.77;;
8044;SDS011;4065;48.754;9.982;2023-03-01T07:11:43;38.35;;;26.05;;
8044;SDS011;4065;48.754;9.982;2023-03-01T07:15:05;42.05;;;26.88;;
8044;SDS011;4065;48.754;9.982;2023-03-01T07:18:31;40.67;;;25.95;;
8044;SDS011;4065;48.754;9.982;2023-03-01T07:21:53;38.03;;;25.73;;
8044;SDS011;4065;48.754;9.982;2023-03-01T07:25:16;39.10;;;24.85;;
8044;SDS011;4065;48.754;9.982;2023-03-01T07:28:38;40.55;;;26.13;;
8044;SDS011;4065;48.754;9.982;2023-03-01T07:32:00;36.53;;;25.77;;
8044;SDS011;4065;48.754;9.982;2023-03-01T07:35:23;39.38;;;26.63;;
8044;SDS011;4065;48.754;9.982;2023-03-01T07:38:47;38.35;;;26.02;;
8044;SDS011;4065;48.754;9.982;2023-03-01T07:42:09;38.30;;;24.35;;
8044;SDS011;4065;48.754;9.982;2023-03-01T07:45:31;38.70;;;25.42;;
8044;SDS011;4065;48.754;9.982;2023-03-01T07:48:53;36.60;;;24.15;;
8044;SDS011;4065;48.754;9.982;2023-03-01T07:52:17;36.45;;;24.55;;
8044;SDS011;4065;48.754;9.982;2023-03-01T07:55:38;42.30;;;25.17;;
8044;SDS011;4065;48.754;9.982;2023-03-01T07:59:01;42.00;;;26.20;;
8044;SDS011;4065;48.754;9.982;2023-03-01T08:02:23;39.88;;;25.35;;
8044;SDS011;4065;48.754;9.982;2023-03-01T08:05:45;38.75;;;23.75;;
8044;SDS011;4065;48.754;9.982;2023-03-01T08:09:08;38.25;;;23.45;;
8044;SDS011;4065;48.754;9.982;2023-03-01T08:12:30;40.88;;;24.55;;
8044;SDS011;4065;48.754;9.982;2023-03-01T08:15:52;39.20;;;23.30;;
8044;SDS011;4065;48.754;9.982;2023-03-01T08:19:15;37.13;;;22.98;;
8044;SDS011;4065;48.754;9.982;2023-03-01T08:22:37;39.28;;;25.35;;
8044;SDS011;4065;48.754;9.982;2023-03-01T08:26:10;34.60;;;23.80;;
8044;SDS011;4065;48.754;9.982;2023-03-01T08:29:36;38.83;;;24.65;;
8044;SDS011;4065;48.754;9.982;2023-03-01T08:32:58;37.28;;;24.40;;
8044;SDS011;4065;48.754;9.982;2023-03-01T08:36:20;35.08;;;23.50;;
8044;SDS011;4065;48.754;9.982;2023-03-01T08:39:42;35.05;;;24.10;;
8044;SDS011;4065;48.754;9.982;2023-03-01T08:43:05;35.90;;;24.98;;
8044;SDS011;4065;48.754;9.982;2023-03-01T08:46:28;34.45;;;22.85;;
8044;SDS011;4065;48.754;9.982;2023-03-01T08:49:53;34.65;;;23.40;;
8044;SDS011;4065;48.754;9.982;2023-03-01T08:53:19;35.00;;;23.08;;
8044;SDS011;4065;48.754;9.982;2023-03-01T08:56:41;36.55;;;23.20;;
8044;SDS011;4065;48.754;9.982;2023-03-01T09:00:05;33.50;;;22.85;;
8044;SDS011;4065;48.754;9.982;2023-03-01T09:03:29;32.00;;;21.00;;
8044;SDS011;4065;48.754;9.982;2023-03-01T09:06:52;35.92;;;21.58;;
8044;SDS011;4065;48.754;9.982;2023-03-01T09:10:14;31.48;;;22.02;;
8044;SDS011;4065;48.754;9.982;2023-03-01T09:13:37;35.33;;;23.25;;
8044;SDS011;4065;48.754;9.982;2023-03-01T09:17:00;33.38;;;22.60;;
8044;SDS011;4065;48.754;9.982;2023-03-01T09:20:26;37.30;;;23.33;;
8044;SDS011;4065;48.754;9.982;2023-03-01T09:23:48;34.00;;;22.75;;
8044;SDS011;4065;48.754;9.982;2023-03-01T09:27:13;36.85;;;22.45;;
8044;SDS011;4065;48.754;9.982;2023-03-01T09:30:38;34.53;;;23.80;;
8044;SDS011;4065;48.754;9.982;2023-03-01T09:34:02;34.63;;;26.60;;
8044;SDS011;4065;48.754;9.982;2023-03-01T09:37:24;32.67;;;21.92;;
8044;SDS011;4065;48.754;9.982;2023-03-01T09:40:46;37.90;;;23.65;;
8044;SDS011;4065;48.754;9.982;2023-03-01T09:44:10;32.75;;;21.33;;
8044;SDS011;4065;48.754;9.982;2023-03-01T09:47:36;30.42;;;21.15;;
8044;SDS011;4065;48.754;9.982;2023-03-01T09:51:03;31.58;;;22.23;;
8044;SDS011;4065;48.754;9.982;2023-03-01T09:54:28;31.13;;;22.33;;
8044;SDS011;4065;48.754;9.982;2023-03-01T09:57:50;37.38;;;22.50;;
8044;SDS011;4065;48.754;9.982;2023-03-01T10:01:21;32.22;;;21.45;;
8044;SDS011;4065;48.754;9.982;2023-03-01T10:04:52;33.25;;;23.58;;
8044;SDS011;4065;48.754;9.982;2023-03-01T10:11:59;33.90;;;21.50;;
8044;SDS011;4065;48.754;9.982;2023-03-01T10:15:25;30.42;;;21.67;;
8044;SDS011;4065;48.754;9.982;2023-03-01T10:18:53;31.42;;;22.02;;
8044;SDS011;4065;48.754;9.982;2023-03-01T10:22:21;29.25;;;21.92;;
8044;SDS011;4065;48.754;9.982;2023-03-01T10:25:53;33.10;;;21.85;;
8044;SDS011;4065;48.754;9.982;2023-03-01T10:29:24;31.08;;;21.67;;
8044;SDS011;4065;48.754;9.982;2023-03-01T10:32:48;32.22;;;22.48;;
8044;SDS011;4065;48.754;9.982;2023-03-01T10:36:14;33.88;;;21.77;;
8044;SDS011;4065;48.754;9.982;2023-03-01T10:39:54;31.13;;;21.17;;
8044;SDS011;4065;48.754;9.982;2023-03-01T10:43:18;27.42;;;21.33;;
8044;SDS011;4065;48.754;9.982;2023-03-01T10:46:41;32.17;;;21.25;;
8044;SDS011;4065;48.754;9.982;2023-03-01T10:50:04;29.90;;;21.65;;
8044;SDS011;4065;48.754;9.982;2023-03-01T10:53:28;29.30;;;21.08;;
8044;SDS011;4065;48.754;9.982;2023-03-01T10:56:53;32.75;;;20.80;;
8044;SDS011;4065;48.754;9.982;2023-03-01T11:00:21;28.90;;;19.73;;
8044;SDS011;4065;48.754;9.982;2023-03-01T11:03:54;33.45;;;20.60;;
8044;SDS011;4065;48.754;9.982;2023-03-01T11:07:29;28.98;;;21.23;;
8044;SDS011;4065;48.754;9.982;2023-03-01T11:11:00;30.20;;;20.85;;
8044;SDS011;4065;48.754;9.982;2023-03-01T11:14:26;27.27;;;20.17;;
8044;SDS011;4065;48.754;9.982;2023-03-01T11:17:51;30.70;;;21.90;;
8044;SDS011;4065;48.754;9.982;2023-03-01T11:21:14;28.05;;;20.60;;
8044;SDS011;4065;48.754;9.982;2023-03-01T11:24:39;29.90;;;20.00;;
8044;SDS011;4065;48.754;9.982;2023-03-01T11:28:05;26.65;;;18.00;;
8044;SDS011;4065;48.754;9.982;2023-03-01T11:31:28;28.38;;;19.00;;
8044;SDS011;4065;48.754;9.982;2023-03-01T11:34:53;30.23;;;20.70;;
8044;SDS011;4065;48.754;9.982;2023-03-01T11:38:20;26.95;;;18.55;;
8044;SDS011;4065;48.754;9.982;2023-03-01T11:41:47;23.83;;;18.50;;
8044;SDS011;4065;48.754;9.982;2023-03-01T11:45:12;27.00;;;17.65;;
8044;SDS011;4065;48.754;9.982;2023-03-01T11:48:40;23.58;;;16.90;;
8044;SDS011;4065;48.754;9.982;2023-03-01T11:52:11;24.00;;;17.23;;
8044;SDS011;4065;48.754;9.982;2023-03-01T11:55:44;22.73;;;16.25;;
8044;SDS011;4065;48.754;9.982;2023-03-01T12:03:30;19.73;;;15.32;;
8044;SDS011;4065;48.754;9.982;2023-03-01T12:06:56;21.20;;;15.95;;
8044;SDS011;4065;48.754;9.982;2023-03-01T12:10:22;23.75;;;16.25;;
8044;SDS011;4065;48.754;9.982;2023-03-01T12:13:58;21.40;;;16.83;;
8044;SDS011;4065;48.754;9.982;2023-03-01T12:17:39;21.83;;;16.38;;
8044;SDS011;4065;48.754;9.982;2023-03-01T12:21:10;22.65;;;17.10;;
8044;SDS011;4065;48.754;9.982;2023-03-01T12:24:47;22.23;;;15.82;;
8044;SDS011;4065;48.754;9.982;2023-03-01T12:28:35;22.45;;;16.50;;
8044;SDS011;4065;48.754;9.982;2023-03-01T12:32:13;22.67;;;16.65;;
8044;SDS011;4065;48.754;9.982;2023-03-01T12:35:44;21.92;;;16.30;;
8044;SDS011;4065;48.754;9.982;2023-03-01T12:39:15;22.42;;;16.67;;
8044;SDS011;4065;48.754;9.982;2023-03-01T12:42:47;19.95;;;14.85;;
8044;SDS011;4065;48.754;9.982;2023-03-01T12:46:24;20.38;;;16.20;;
8044;SDS011;4065;48.754;9.982;2023-03-01T12:49:51;22.52;;;16.63;;
8044;SDS011;4065;48.754;9.982;2023-03-01T12:53:19;22.30;;;16.83;;
8044;SDS011;4065;48.754;9.982;2023-03-01T12:56:44;23.90;;;17.48;;
8044;SDS011;4065;48.754;9.982;2023-03-01T13:00:17;23.45;;;16.75;;
8044;SDS011;4065;48.754;9.982;2023-03-01T13:04:01;25.27;;;16.05;;
8044;SDS011;4065;48.754;9.982;2023-03-01T13:07:33;23.33;;;17.15;;
8044;SDS011;4065;48.754;9.982;2023-03-01T13:11:01;22.13;;;16.90;;
8044;SDS011;4065;48.754;9.982;2023-03-01T13:14:35;22.90;;;16.80;;
8044;SDS011;4065;48.754;9.982;2023-03-01T13:17:59;23.95;;;16.02;;
8044;SDS011;4065;48.754;9.982;2023-03-01T13:21:30;27.98;;;19.27;;
8044;SDS011;4065;48.754;9.982;2023-03-01T13:25:00;25.92;;;18.50;;
8044;SDS011;4065;48.754;9.982;2023-03-01T13:28:36;27.08;;;19.23;;
8044;SDS011;4065;48.754;9.982;2023-03-01T13:32:22;25.65;;;19.13;;
8044;SDS011;4065;48.754;9.982;2023-03-01T13:35:45;30.77;;;20.55;;
8044;SDS011;4065;48.754;9.982;2023-03-01T13:42:38;23.50;;;19.15;;
8044;SDS011;4065;48.754;9.982;2023-03-01T13:46:02;23.13;;;18.05;;
8044;SDS011;4065;48.754;9.982;2023-03-01T13:49:35;24.20;;;18.63;;
8044;SDS011;4065;48.754;9.982;2023-03-01T13:53:04;24.45;;;18.45;;
8044;SDS011;4065;48.754;9.982;2023-03-01T13:56:29;25.13;;;19.10;;
8044;SDS011;4065;48.754;9.982;2023-03-01T13:59:58;27.65;;;18.88;;
8044;SDS011;4065;48.754;9.982;2023-03-01T14:03:21;25.67;;;18.85;;
8044;SDS011;4065;48.754;9.982;2023-03-01T14:06:42;24.02;;;18.13;;
8044;SDS011;4065;48.754;9.982;2023-03-01T14:10:05;26.90;;;18.55;;
8044;SDS011;4065;48.754;9.982;2023-03-01T14:13:31;23.70;;;18.00;;
8044;SDS011;4065;48.754;9.982;2023-03-01T14:17:02;23.73;;;18.00;;
8044;SDS011;4065;48.754;9.982;2023-03-01T14:20:37;24.42;;;17.90;;
8044;SDS011;4065;48.754;9.982;2023-03-01T14:24:01;25.35;;;19.27;;
8044;SDS011;4065;48.754;9.982;2023-03-01T14:27:25;26.90;;;17.95;;
8044;SDS011;4065;48.754;9.982;2023-03-01T14:30:48;28.08;;;19.20;;
8044;SDS011;4065;48.754;9.982;2023-03-01T14:34:17;23.63;;;17.50;;
8044;SDS011;4065;48.754;9.982;2023-03-01T14:37:41;23.83;;;17.52;;
8044;SDS011;4065;48.754;9.982;2023-03-01T14:41:03;26.25;;;18.60;;
8044;SDS011;4065;48.754;9.982;2023-03-01T14:44:27;25.23;;;19.48;;
8044;SDS011;4065;48.754;9.982;2023-03-01T14:47:50;28.30;;;18.02;;
8044;SDS011;4065;48.754;9.982;2023-03-01T14:51:13;25.10;;;16.83;;
8044;SDS011;4065;48.754;9.982;2023-03-01T14:54:37;22.77;;;17.77;;
8044;SDS011;4065;48.754;9.982;2023-03-01T14:58:04;24.80;;;18.17;;
8044;SDS011;4065;48.754;9.982;2023-03-01T15:01:26;24.35;;;18.52;;
8044;SDS011;4065;48.754;9.982;2023-03-01T15:04:50;25.13;;;18.33;;
8044;SDS011;4065;48.754;9.982;2023-03-01T15:08:16;25.85;;;18.20;;
8044;SDS011;4065;48.754;9.982;2023-03-01T15:11:40;24.67;;;17.98;;
8044;SDS011;4065;48.754;9.982;2023-03-01T15:15:21;23.55;;;17.63;;
8044;SDS011;4065;48.754;9.982;2023-03-01T15:18:50;25.98;;;17.73;;
8044;SDS011;4065;48.754;9.982;2023-03-01T15:22:14;24.55;;;18.15;;
8044;SDS011;4065;48.754;9.982;2023-03-01T15:25:43;25.63;;;18.85;;
8044;SDS011;4065;48.754;9.982;2023-03-01T15:29:11;26.08;;;19.58;;
8044;SDS011;4065;48.754;9.982;2023-03-01T15:32:37;27.13;;;19.20;;
8044;SDS011;4065;48.754;9.982;2023-03-01T15:36:03;29.38;;;18.80;;
8044;SDS011;4065;48.754;9.982;2023-03-01T15:39:40;24.88;;;18.40;;
8044;SDS011;4065;48.754;9.982;2023-03-01T15:43:06;25.65;;;17.42;;
8044;SDS011;4065;48.754;9.982;2023-03-01T15:46:35;23.52;;;18.40;;
8044;SDS011;4065;48.754;9.982;2023-03-01T15:49:59;23.63;;;18.48;;
8044;SDS011;4065;48.754;9.982;2023-03-01T15:53:22;24.85;;;16.48;;
8044;SDS011;4065;48.754;9.982;2023-03-01T15:56:46;25.35;;;18.13;;
8044;SDS011;4065;48.754;9.982;2023-03-01T16:00:10;24.00;;;17.48;;
8044;SDS011;4065;48.754;9.982;2023-03-01T16:03:35;23.88;;;17.00;;
8044;SDS011;4065;48.754;9.982;2023-03-01T16:06:57;26.65;;;18.20;;
8044;SDS011;4065;48.754;9.982;2023-03-01T16:10:19;25.08;;;17.45;;
8044;SDS011;4065;48.754;9.982;2023-03-01T16:13:41;22.20;;;17.23;;
8044;SDS011;4065;48.754;9.982;2023-03-01T16:17:06;26.10;;;18.55;;
8044;SDS011;4065;48.754;9.982;2023-03-01T16:20:30;24.75;;;17.90;;
8044;SDS011;4065;48.754;9.982;2023-03-01T16:23:52;25.75;;;19.27;;
8044;SDS011;4065;48.754;9.982;2023-03-01T16:27:14;24.95;;;17.95;;
8044;SDS011;4065;48.754;9.982;2023-03-01T16:30:36;27.85;;;18.10;;
8044;SDS011;4065;48.754;9.982;2023-03-01T16:34:01;29.45;;;19.13;;
8044;SDS011;4065;48.754;9.982;2023-03-01T16:37:22;28.05;;;18.27;;
8044;SDS011;4065;48.754;9.982;2023-03-01T16:40:46;24.33;;;17.40;;
8044;SDS011;4065;48.754;9.982;2023-03-01T16:44:12;27.83;;;18.88;;
8044;SDS011;4065;48.754;9.982;2023-03-01T16:47:34;24.45;;;18.52;;
8044;SDS011;4065;48.754;9.982;2023-03-01T16:50:59;25.63;;;18.95;;
8044;SDS011;4065;48.754;9.982;2023-03-01T16:54:21;28.17;;;18.20;;
8044;SDS011;4065;48.754;9.982;2023-03-01T16:57:43;27.45;;;19.45;;
8044;SDS011;4065;48.754;9.982;2023-03-01T17:01:06;28.42;;;18.55;;
8044;SDS011;4065;48.754;9.982;2023-03-01T17:04:31;27.58;;;19.60;;
8044;SDS011;4065;48.754;9.982;2023-03-01T17:07:54;31.25;;;21.52;;
8044;SDS011;4065;48.754;9.982;2023-03-01T17:11:18;30.95;;;19.88;;
8044;SDS011;4065;48.754;9.982;2023-03-01T17:14:41;26.35;;;19.33;;
8044;SDS011;4065;48.754;9.982;2023-03-01T17:18:03;26.52;;;18.77;;
8044;SDS011;4065;48.754;9.982;2023-03-01T17:21:26;25.52;;;18.02;;
8044;SDS011;4065;48.754;9.982;2023-03-01T17:24:49;26.17;;;18.67;;
8044;SDS011;4065;48.754;9.982;2023-03-01T17:28:11;29.55;;;19.38;;
8044;SDS011;4065;48.754;9.982;2023-03-01T17:31:34;26.88;;;19.35;;
8044;SDS011;4065;48.754;9.982;2023-03-01T17:34:56;25.65;;;18.73;;
8044;SDS011;4065;48.754;9.982;2023-03-01T17:38:19;28.48;;;20.67;;
8044;SDS011;4065;48.754;9.982;2023-03-01T17:41:42;31.23;;;21.02;;
8044;SDS011;4065;48.754;9.982;2023-03-01T17:45:05;41.05;;;23.60;;
8044;SDS011;4065;48.754;9.982;2023-03-01T17:48:28;32.55;;;21.70;;
8044;SDS011;4065;48.754;9.982;2023-03-01T17:51:50;35.05;;;22.45;;
8044;SDS011;4065;48.754;9.982;2023-03-01T17:55:12;32.30;;;21.70;;
8044;SDS011;4065;48.754;9.982;2023-03-01T17:58:35;28.67;;;20.35;;
8044;SDS011;4065;48.754;9.982;2023-03-01T18:01:58;28.52;;;20.45;;
8044;SDS011;4065;48.754;9.982;2023-03-01T18:05:21;32.28;;;20.67;;
8044;SDS011;4065;48.754;9.982;2023-03-01T18:08:43;41.30;;;24.00;;
8044;SDS011;4065;48.754;9.982;2023-03-01T18:12:09;36.80;;;23.60;;
8044;SDS011;4065;48.754;9.982;2023-03-01T18:15:33;38.63;;;24.45;;
8044;SDS011;4065;48.754;9.982;2023-03-01T18:18:55;45.30;;;24.45;;
8044;SDS011;4065;48.754;9.982;2023-03-01T18:22:17;41.72;;;24.90;;
8044;SDS011;4065;48.754;9.982;2023-03-01T18:25:39;38.67;;;25.58;;
8044;SDS011;4065;48.754;9.982;2023-03-01T18:29:01;39.63;;;25.25;;
8044;SDS011;4065;48.754;9.982;2023-03-01T18:32:28;38.50;;;25.85;;
8044;SDS011;4065;48.754;9.982;2023-03-01T18:35:50;38.35;;;24.20;;
8044;SDS011;4065;48.754;9.982;2023-03-01T18:39:12;44.10;;;27.80;;
8044;SDS011;4065;48.754;9.982;2023-03-01T18:42:34;36.33;;;24.05;;
8044;SDS011;4065;48.754;9.982;2023-03-01T18:45:56;36.40;;;24.85;;
8044;SDS011;4065;48.754;9.982;2023-03-01T18:49:19;36.83;;;24.88;;
8044;SDS011;4065;48.754;9.982;2023-03-01T18:52:41;38.17;;;25.17;;
8044;SDS011;4065;48.754;9.982;2023-03-01T18:56:03;43.55;;;28.88;;
8044;SDS011;4065;48.754;9.982;2023-03-01T18:59:26;40.80;;;25.88;;
8044;SDS011;4065;48.754;9.982;2023-03-01T19:02:49;43.65;;;27.35;;
8044;SDS011;4065;48.754;9.982;2023-03-01T19:06:12;37.08;;;25.05;;
8044;SDS011;4065;48.754;9.982;2023-03-01T19:09:35;45.13;;;27.80;;
8044;SDS011;4065;48.754;9.982;2023-03-01T19:12:56;39.97;;;27.08;;
8044;SDS011;4065;48.754;9.982;2023-03-01T19:16:19;41.10;;;26.65;;
8044;SDS011;4065;48.754;9.982;2023-03-01T19:19:42;38.40;;;26.00;;
8044;SDS011;4065;48.754;9.982;2023-03-01T19:23:05;37.78;;;26.15;;
8044;SDS011;4065;48.754;9.982;2023-03-01T19:26:27;40.25;;;25.98;;
8044;SDS011;4065;48.754;9.982;2023-03-01T19:29:49;40.45;;;25.77;;
8044;SDS011;4065;48.754;9.982;2023-03-01T19:33:11;39.97;;;25.10;;
8044;SDS011;4065;48.754;9.982;2023-03-01T19:36:33;43.70;;;27.15;;
8044;SDS011;4065;48.754;9.982;2023-03-01T19:39:56;46.63;;;26.55;;
8044;SDS011;4065;48.754;9.982;2023-03-01T19:43:18;37.15;;;25.85;;
8044;SDS011;4065;48.754;9.982;2023-03-01T19:46:40;41.38;;;26.83;;
8044;SDS011;4065;48.754;9.982;2023-03-01T19:50:02;39.53;;;25.92;;
8044;SDS011;4065;48.754;9.982;2023-03-01T19:53:24;39.78;;;26.27;;
8044;SDS011;4065;48.754;9.982;2023-03-01T19:56:48;45.80;;;26.95;;
8044;SDS011;4065;48.754;9.982;2023-03-01T20:00:11;44.20;;;27.20;;
8044;SDS011;4065;48.754;9.982;2023-03-01T20:03:33;38.03;;;25.38;;
8044;SDS011;4065;48.754;9.982;2023-03-01T20:06:56;42.88;;;27.85;;
8044;SDS011;4065;48.754;9.982;2023-03-01T20:10:18;39.75;;;27.40;;
8044;SDS011;4065;48.754;9.982;2023-03-01T20:13:41;41.63;;;26.08;;
8044;SDS011;4065;48.754;9.982;2023-03-01T20:17:03;43.03;;;26.77;;
8044;SDS011;4065;48.754;9.982;2023-03-01T20:20:25;41.22;;;25.60;;
8044;SDS011;4065;48.754;9.982;2023-03-01T20:23:47;39.15;;;25.85;;
8044;SDS011;4065;48.754;9.982;2023-03-01T20:27:09;41.90;;;27.00;;
8044;SDS011;4065;48.754;9.982;2023-03-01T20:30:32;40.47;;;27.27;;
8044;SDS011;4065;48.754;9.982;2023-03-01T20:33:54;42.42;;;26.70;;
8044;SDS011;4065;48.754;9.982;2023-03-01T20:37:17;43.50;;;27.42;;
8044;SDS011;4065;48.754;9.982;2023-03-01T20:40:41;42.30;;;27.15;;
8044;SDS011;4065;48.754;9.982;2023-03-01T20:44:03;44.67;;;28.27;;